Time;durP1;ratioP1;P1;durP2;ratioP2;P2;SDS_P1;SDS_P2;PMS_P1;PMS_P2;Temp;Humidity;BMP_temperature;BMP_pressure;BME280_temperature;BME280_humidity;BME280_pressure;Samples;Min_cycle;Max_cycle;Signal;HPM_P1;HPM_P2
2021/03/08 00:00:41;;;;;;;10.73;7.60;;;1.30;99.90;;;;;;5035997;28;20201;-78
2021/03/08 00:03:09;;;;;;;12.25;7.68;;;1.40;99.90;;;;;;5035375;28;20180;-76
2021/03/08 00:05:35;;;;;;;13.27;7.32;;;1.40;99.90;;;;;;5035661;28;20162;-78
2021/03/08 00:08:02;;;;;;;11.27;8.25;;;1.40;99.90;;;;;;5035856;28;20178;-77
2021/03/08 00:10:27;;;;;;;9.10;7.13;;;1.20;99.90;;;;;;5035224;28;20231;-77
2021/03/08 00:12:53;;;;;;;7.57;6.63;;;1.10;99.90;;;;;;5035132;28;20174;-77
2021/03/08 00:15:20;;;;;;;8.70;7.27;;;1.20;99.90;;;;;;5035117;28;20747;-77
2021/03/08 00:17:46;;;;;;;13.82;8.18;;;1.30;99.90;;;;;;5035543;28;20182;-77
2021/03/08 00:20:17;;;;;;;11.17;7.23;;;1.30;99.90;;;;;;5035505;28;20665;-76
2021/03/08 00:22:44;;;;;;;11.93;7.00;;;1.50;99.90;;;;;;5035589;28;20412;-77
2021/03/08 00:25:13;;;;;;;12.73;7.20;;;1.40;99.90;;;;;;5034985;28;20190;-75
2021/03/08 00:27:38;;;;;;;9.30;6.93;;;1.40;99.90;;;;;;5035311;28;20178;-76
2021/03/08 00:30:06;;;;;;;13.47;7.83;;;1.50;99.90;;;;;;5035293;28;20266;-77
2021/03/08 00:32:32;;;;;;;8.18;6.85;;;1.50;99.90;;;;;;5035212;28;20224;-78
2021/03/08 00:34:58;;;;;;;12.40;8.50;;;1.50;99.90;;;;;;5034689;28;20233;-77
2021/03/08 00:37:30;;;;;;;11.68;8.15;;;1.60;99.90;;;;;;5035047;28;20166;-77
2021/03/08 00:39:56;;;;;;;13.20;7.60;;;1.60;99.90;;;;;;5035039;28;20198;-76
2021/03/08 00:42:22;;;;;;;11.48;7.70;;;1.60;99.90;;;;;;5035035;28;20574;-77
2021/03/08 00:44:48;;;;;;;10.90;7.43;;;1.70;99.90;;;;;;5034598;28;20196;-77
2021/03/08 00:47:13;;;;;;;10.60;8.07;;;1.70;99.90;;;;;;5035043;28;20209;-77
2021/03/08 00:49:39;;;;;;;11.70;8.00;;;1.70;99.90;;;;;;5035107;28;20228;-77
2021/03/08 00:52:05;;;;;;;11.30;8.60;;;1.70;99.90;;;;;;5034744;28;20210;-77
2021/03/08 00:54:30;;;;;;;10.93;7.77;;;1.80;99.90;;;;;;5034685;28;20200;-77
2021/03/08 00:56:56;;;;;;;11.63;8.80;;;1.80;99.90;;;;;;5034721;28;20187;-76
2021/03/08 00:59:21;;;;;;;12.57;8.27;;;1.80;99.90;;;;;;5034680;28;20512;-78
2021/03/08 01:01:47;;;;;;;10.37;7.60;;;1.90;99.90;;;;;;5034627;28;20213;-77
2021/03/08 01:04:13;;;;;;;11.00;7.93;;;1.80;99.90;;;;;;5034230;28;20205;-77
2021/03/08 01:06:38;;;;;;;10.97;8.90;;;1.70;99.90;;;;;;5034606;28;20412;-77
2021/03/08 01:09:07;;;;;;;10.83;8.30;;;1.80;99.90;;;;;;5034535;28;20631;-77
2021/03/08 01:11:34;;;;;;;9.77;6.97;;;1.70;99.90;;;;;;5034412;28;20289;-77
2021/03/08 01:14:00;;;;;;;14.45;8.60;;;1.80;99.90;;;;;;5034033;28;20288;-77
2021/03/08 01:16:25;;;;;;;11.63;8.47;;;1.80;99.90;;;;;;5034595;28;20175;-77
2021/03/08 01:18:51;;;;;;;11.37;8.63;;;2.00;99.90;;;;;;5034560;28;20178;-78
2021/03/08 01:21:17;;;;;;;11.17;7.10;;;1.90;99.90;;;;;;5034340;28;20197;-78
2021/03/08 01:23:42;;;;;;;11.70;8.50;;;1.90;99.90;;;;;;5033899;28;20194;-76
2021/03/08 01:26:08;;;;;;;11.17;7.63;;;1.70;99.90;;;;;;5034160;28;20224;-77
2021/03/08 01:28:33;;;;;;;9.93;7.70;;;1.80;99.90;;;;;;5034197;28;20182;-77
2021/03/08 01:30:59;;;;;;;9.83;7.53;;;1.70;99.90;;;;;;5034031;28;20253;-77
2021/03/08 01:33:24;;;;;;;10.60;8.13;;;1.80;99.90;;;;;;5033697;28;20558;-78
2021/03/08 01:35:50;;;;;;;11.60;9.27;;;1.90;99.90;;;;;;5033504;28;20181;-77
2021/03/08 01:38:16;;;;;;;12.83;8.10;;;1.90;99.90;;;;;;5033824;28;20185;-77
2021/03/08 01:40:42;;;;;;;12.10;8.83;;;1.90;99.90;;;;;;5033766;28;20209;-77
2021/03/08 01:43:10;;;;;;;10.45;7.57;;;2.00;99.90;;;;;;5033448;28;20240;-77
2021/03/08 01:45:36;;;;;;;12.70;8.35;;;1.90;99.90;;;;;;5034036;28;20177;-77
2021/03/08 01:48:03;;;;;;;11.93;8.20;;;1.90;99.90;;;;;;5033927;28;21035;-77
2021/03/08 01:50:37;;;;;;;10.43;7.82;;;1.80;99.90;;;;;;5033952;28;20181;-76
2021/03/08 01:53:05;;;;;;;10.73;7.47;;;1.70;99.90;;;;;;5033397;28;20174;-77
2021/03/08 01:55:31;;;;;;;10.70;8.20;;;1.70;99.90;;;;;;5033744;28;20182;-78
2021/03/08 01:57:57;;;;;;;11.38;8.35;;;1.70;99.90;;;;;;5032401;28;20232;-78
2021/03/08 02:00:24;;;;;;;13.55;9.07;;;1.70;99.90;;;;;;5033556;28;20230;-78
2021/03/08 02:02:50;;;;;;;10.93;9.30;;;1.80;99.90;;;;;;5033505;28;20270;-78
2021/03/08 02:05:18;;;;;;;10.30;8.70;;;1.80;99.90;;;;;;5033115;28;20185;-77
2021/03/08 02:07:43;;;;;;;10.75;8.00;;;1.80;99.90;;;;;;5033834;28;20835;-77
2021/03/08 02:10:11;;;;;;;11.03;7.73;;;1.80;99.90;;;;;;5033485;28;20258;-77
2021/03/08 02:12:46;;;;;;;8.55;7.28;;;1.70;99.90;;;;;;5033700;28;20193;-78
2021/03/08 02:15:36;;;;;;;12.90;8.10;;;1.80;99.90;;;;;;5033123;28;20193;-76
2021/03/08 02:18:16;;;;;;;13.00;8.57;;;1.90;99.90;;;;;;5033394;28;20193;-77
2021/03/08 02:21:12;;;;;;;10.30;7.88;;;1.80;99.90;;;;;;5033344;28;20233;-76
2021/03/08 02:23:49;;;;;;;11.65;8.60;;;2.00;99.90;;;;;;5032892;28;20303;-77
2021/03/08 02:26:37;;;;;;;10.93;7.82;;;1.80;99.90;;;;;;5033199;28;20169;-76
2021/03/08 02:29:03;;;;;;;14.95;9.13;;;1.80;99.90;;;;;;5033281;28;20166;-75
2021/03/08 02:31:32;;;;;;;11.80;9.43;;;1.70;99.90;;;;;;5033304;28;20583;-76
2021/03/08 02:34:08;;;;;;;11.57;7.97;;;1.70;99.90;;;;;;5032290;28;20212;-77
2021/03/08 02:36:38;;;;;;;13.02;8.20;;;1.90;99.90;;;;;;5033208;28;20213;-76
2021/03/08 02:39:17;;;;;;;12.07;8.73;;;2.00;99.90;;;;;;5033181;28;20174;-76
2021/03/08 02:41:46;;;;;;;17.00;8.60;;;2.00;99.90;;;;;;5032961;28;20677;-77
2021/03/08 02:44:14;;;;;;;14.48;8.73;;;2.00;99.90;;;;;;5032671;28;20263;-76
2021/03/08 02:46:43;;;;;;;12.18;8.20;;;1.90;99.90;;;;;;5032931;28;20170;-78
2021/03/08 02:49:30;;;;;;;12.00;8.30;;;1.90;99.90;;;;;;5033035;28;20201;-77
2021/03/08 02:52:04;;;;;;;10.55;7.82;;;1.80;99.90;;;;;;5033014;28;20181;-77
2021/03/08 02:54:32;;;;;;;12.88;8.45;;;1.80;99.90;;;;;;5032501;28;20199;-78
2021/03/08 02:57:02;;;;;;;11.50;8.48;;;1.80;99.90;;;;;;5033115;28;20200;-78
2021/03/08 02:59:36;;;;;;;14.05;8.73;;;1.70;99.90;;;;;;5033037;28;20181;-77
2021/03/08 03:02:03;;;;;;;17.80;9.32;;;1.60;99.90;;;;;;5032823;28;20212;-77
2021/03/08 03:04:30;;;;;;;14.10;8.50;;;1.60;99.90;;;;;;5031379;28;20198;-78
2021/03/08 03:06:57;;;;;;;16.48;8.88;;;1.60;99.90;;;;;;5033019;28;20268;-78
2021/03/08 03:09:24;;;;;;;12.95;8.65;;;1.50;99.90;;;;;;5033156;28;20166;-77
2021/03/08 03:11:54;;;;;;;10.23;8.20;;;1.50;99.90;;;;;;5031662;28;20607;-77
2021/03/08 03:14:24;;;;;;;12.27;9.27;;;1.50;99.90;;;;;;5032433;28;20194;-77
2021/03/08 03:16:54;;;;;;;12.68;8.55;;;1.40;99.90;;;;;;5032643;28;20181;-78
2021/03/08 03:19:22;;;;;;;15.75;8.93;;;1.40;99.90;;;;;;5032889;28;20178;-77
2021/03/08 03:21:49;;;;;;;12.70;9.00;;;1.30;99.90;;;;;;5032855;28;20213;-77
2021/03/08 03:24:15;;;;;;;15.65;9.07;;;1.20;99.90;;;;;;5032393;28;20194;-78
2021/03/08 03:26:42;;;;;;;13.30;9.37;;;1.10;99.90;;;;;;5032782;28;20199;-78
2021/03/08 03:29:09;;;;;;;16.38;9.75;;;1.20;99.90;;;;;;5032674;28;20517;-78
2021/03/08 03:31:38;;;;;;;15.60;9.15;;;1.20;99.90;;;;;;5032649;28;20235;-78
2021/03/08 03:34:05;;;;;;;12.57;9.07;;;1.20;99.90;;;;;;5030997;28;20214;-77
2021/03/08 03:36:37;;;;;;;15.20;8.43;;;1.20;99.90;;;;;;5032688;28;20583;-77
2021/03/08 03:39:09;;;;;;;16.83;10.98;;;1.20;99.90;;;;;;5032424;28;20205;-77
2021/03/08 03:41:34;;;;;;;13.05;8.80;;;1.20;99.90;;;;;;5032497;28;20576;-78
2021/03/08 03:44:01;;;;;;;13.00;9.47;;;1.20;99.90;;;;;;5032188;28;20277;-77
2021/03/08 03:46:28;;;;;;;14.18;10.25;;;1.20;99.90;;;;;;5033528;28;20538;-78
2021/03/08 03:48:53;;;;;;;12.93;9.63;;;1.20;99.90;;;;;;5035928;28;20189;-78
2021/03/08 03:51:20;;;;;;;17.07;10.27;;;1.20;99.90;;;;;;5036021;28;20251;-78
2021/03/08 03:53:46;;;;;;;15.55;10.40;;;1.20;99.90;;;;;;5035591;28;20621;-77
2021/03/08 03:56:15;;;;;;;13.33;8.97;;;1.20;99.90;;;;;;5036018;28;20261;-78
2021/03/08 03:59:12;;;;;;;11.88;9.43;;;1.20;99.90;;;;;;5035828;28;20177;-77
2021/03/08 04:01:43;;;;;;;14.20;9.40;;;1.20;99.90;;;;;;5035865;28;20204;-78
2021/03/08 04:04:22;;;;;;;16.20;9.30;;;1.20;99.90;;;;;;5035607;28;20209;-78
2021/03/08 04:06:49;;;;;;;19.52;9.90;;;1.20;99.90;;;;;;5035746;28;20169;-78
2021/03/08 04:09:19;;;;;;;16.52;10.25;;;1.10;99.90;;;;;;5035761;28;20703;-77
2021/03/08 04:11:47;;;;;;;16.52;10.20;;;1.10;99.90;;;;;;5035597;28;20174;-77
2021/03/08 04:14:17;;;;;;;15.73;10.93;;;1.00;99.90;;;;;;5035257;28;20202;-77
2021/03/08 04:16:47;;;;;;;18.85;10.52;;;1.00;99.90;;;;;;5035477;28;20196;-78
2021/03/08 04:19:14;;;;;;;15.60;9.15;;;1.00;99.90;;;;;;5035614;28;20557;-78
2021/03/08 04:21:41;;;;;;;14.50;10.45;;;1.00;99.90;;;;;;5035432;28;20255;-77
2021/03/08 04:24:10;;;;;;;14.90;9.80;;;1.00;99.90;;;;;;5033828;28;20602;-77
2021/03/08 04:26:39;;;;;;;12.55;9.63;;;0.90;99.90;;;;;;5035338;28;20173;-77
2021/03/08 04:29:06;;;;;;;14.50;9.40;;;0.80;99.90;;;;;;5035267;28;20257;-78
2021/03/08 04:31:33;;;;;;;15.45;10.30;;;0.80;99.90;;;;;;5035119;28;20686;-77
2021/03/08 04:34:00;;;;;;;15.25;10.60;;;0.80;99.90;;;;;;5034688;28;20212;-77
2021/03/08 04:36:27;;;;;;;13.65;10.45;;;0.90;99.90;;;;;;5033957;28;20522;-77
2021/03/08 04:38:53;;;;;;;14.00;10.02;;;0.80;99.90;;;;;;5035120;28;20235;-78
2021/03/08 04:41:19;;;;;;;19.00;11.13;;;0.80;99.90;;;;;;5034849;28;20263;-78
2021/03/08 04:43:45;;;;;;;17.40;12.10;;;0.80;99.90;;;;;;5034600;28;20188;-78
2021/03/08 04:46:11;;;;;;;18.80;11.00;;;0.80;99.90;;;;;;5034962;28;20192;-78
2021/03/08 04:48:37;;;;;;;21.13;11.73;;;0.90;99.90;;;;;;5035062;28;20420;-77
2021/03/08 04:51:06;;;;;;;17.43;10.97;;;0.80;99.90;;;;;;5034829;28;20411;-76
2021/03/08 04:53:33;;;;;;;20.15;11.95;;;1.00;99.90;;;;;;5034185;28;20436;-78
2021/03/08 04:56:01;;;;;;;18.52;11.18;;;0.90;99.90;;;;;;5034798;28;20187;-77
2021/03/08 04:58:28;;;;;;;13.60;10.70;;;0.90;99.90;;;;;;5034534;28;20166;-77
2021/03/08 05:00:55;;;;;;;23.70;11.10;;;1.00;99.90;;;;;;5034589;28;20198;-76
2021/03/08 05:03:23;;;;;;;17.85;11.68;;;1.00;99.90;;;;;;5034181;28;20525;-77
2021/03/08 05:05:50;;;;;;;16.25;11.73;;;0.90;99.90;;;;;;5034588;28;20177;-78
2021/03/08 05:08:16;;;;;;;20.77;11.60;;;0.90;99.90;;;;;;5034642;28;20170;-77
2021/03/08 05:10:42;;;;;;;24.40;10.70;;;0.80;99.90;;;;;;5034506;28;20186;-77
2021/03/08 05:13:10;;;;;;;18.73;13.10;;;0.80;99.90;;;;;;5034300;28;20179;-77
2021/03/08 05:15:37;;;;;;;19.70;12.68;;;0.80;99.90;;;;;;5034299;28;20176;-78
2021/03/08 05:18:04;;;;;;;26.48;12.32;;;0.90;99.90;;;;;;5034532;28;20264;-77
2021/03/08 05:20:30;;;;;;;24.20;13.75;;;0.80;99.90;;;;;;5034197;28;20198;-76
2021/03/08 05:22:58;;;;;;;18.52;12.32;;;0.80;99.90;;;;;;5034439;28;20170;-77
2021/03/08 05:25:25;;;;;;;17.90;12.45;;;0.80;99.90;;;;;;5034331;28;20218;-78
2021/03/08 05:27:50;;;;;;;18.92;12.45;;;0.70;99.90;;;;;;5033943;28;20698;-77
2021/03/08 05:30:21;;;;;;;24.17;13.27;;;0.80;99.90;;;;;;5034036;28;20265;-78
2021/03/08 05:33:03;;;;;;;22.05;13.80;;;0.70;99.90;;;;;;5033956;28;20178;-78
2021/03/08 05:35:29;;;;;;;26.33;13.68;;;0.70;99.90;;;;;;5033918;28;20232;-78
2021/03/08 05:37:56;;;;;;;24.58;14.60;;;0.70;99.90;;;;;;5033969;28;20708;-77
2021/03/08 05:40:29;;;;;;;20.65;13.63;;;0.60;99.90;;;;;;5034055;28;20255;-77
2021/03/08 05:43:03;;;;;;;23.83;14.30;;;0.60;99.90;;;;;;5033800;28;20190;-78
2021/03/08 05:45:33;;;;;;;17.88;11.80;;;0.60;99.90;;;;;;5033691;28;20324;-77
2021/03/08 05:48:04;;;;;;;23.52;13.90;;;0.70;99.90;;;;;;5033658;28;20169;-78
2021/03/08 05:50:51;;;;;;;20.35;13.10;;;0.60;99.90;;;;;;5033878;28;20195;-78
2021/03/08 05:53:32;;;;;;;22.00;12.75;;;0.60;99.90;;;;;;5013608;28;20178;-78
2021/03/08 05:56:16;;;;;;;23.13;14.13;;;0.60;99.90;;;;;;5014052;28;20543;-78
2021/03/08 05:59:10;;;;;;;21.88;12.80;;;0.60;99.90;;;;;;5014259;28;20630;-78
2021/03/08 06:02:06;;;;;;;20.88;11.35;;;0.60;99.90;;;;;;5013962;28;20203;-77
2021/03/08 06:05:02;;;;;;;19.88;12.65;;;0.60;99.90;;;;;;5013007;28;20210;-77
2021/03/08 06:08:05;;;;;;;21.27;14.82;;;0.60;99.90;;;;;;5012604;28;20646;-78
2021/03/08 06:10:34;;;;;;;21.02;13.13;;;0.60;99.90;;;;;;5011938;28;20255;-77
2021/03/08 06:13:08;;;;;;;22.63;13.90;;;0.60;99.90;;;;;;5012323;28;20209;-78
2021/03/08 06:15:35;;;;;;;25.40;14.30;;;0.70;99.90;;;;;;5013787;28;20180;-77
2021/03/08 06:18:11;;;;;;;24.92;14.23;;;0.80;99.90;;;;;;5013791;28;20308;-78
2021/03/08 06:20:38;;;;;;;25.55;14.45;;;0.80;99.90;;;;;;5013541;28;20198;-78
2021/03/08 06:23:05;;;;;;;25.25;15.05;;;0.80;99.90;;;;;;5013444;28;20167;-77
2021/03/08 06:25:30;;;;;;;22.90;14.32;;;0.80;99.90;;;;;;5013603;28;20191;-78
2021/03/08 06:27:57;;;;;;;27.97;16.37;;;0.90;99.90;;;;;;5013516;28;20174;-78
2021/03/08 06:30:24;;;;;;;28.95;14.55;;;0.80;99.90;;;;;;5013350;28;20461;-77
2021/03/08 06:32:51;;;;;;;33.83;17.25;;;0.90;99.90;;;;;;5013575;28;20201;-77
2021/03/08 06:35:16;;;;;;;26.38;15.18;;;1.00;99.90;;;;;;5012973;28;20229;-78
2021/03/08 06:37:42;;;;;;;24.43;14.70;;;0.90;99.90;;;;;;5013243;28;20581;-77
2021/03/08 06:40:11;;;;;;;26.27;16.90;;;1.00;99.90;;;;;;5013334;28;20875;-77
2021/03/08 06:42:38;;;;;;;22.40;14.52;;;1.10;99.90;;;;;;5013251;28;20268;-78
2021/03/08 06:45:07;;;;;;;23.73;15.15;;;1.10;99.90;;;;;;5012907;28;20199;-76
2021/03/08 06:47:32;;;;;;;25.05;15.05;;;1.20;99.90;;;;;;5019013;28;20541;-78
2021/03/08 06:49:58;;;;;;;29.07;17.47;;;1.30;99.90;;;;;;5033008;28;20174;-78
2021/03/08 06:52:37;;;;;;;35.93;15.33;;;1.20;99.90;;;;;;5032744;28;20410;-78
2021/03/08 06:55:03;;;;;;;29.45;16.67;;;1.00;99.90;;;;;;5032442;28;20201;-78
2021/03/08 06:57:31;;;;;;;30.70;16.55;;;1.10;99.90;;;;;;5033033;28;20260;-79
2021/03/08 07:00:03;;;;;;;32.95;16.15;;;1.20;99.90;;;;;;5031524;28;20277;-78
2021/03/08 07:02:35;;;;;;;29.60;15.68;;;1.40;99.90;;;;;;5032586;28;20268;-79
2021/03/08 07:05:00;;;;;;;27.83;16.13;;;1.50;99.90;;;;;;5032367;28;20205;-78
2021/03/08 07:07:26;;;;;;;26.60;15.47;;;1.60;99.90;;;;;;5032210;28;20176;-79
2021/03/08 07:09:54;;;;;;;33.80;18.30;;;1.60;99.90;;;;;;5028268;28;20198;-79
2021/03/08 07:12:21;;;;;;;33.78;17.70;;;1.70;99.90;;;;;;5032265;28;20178;-79
2021/03/08 07:15:03;;;;;;;31.98;17.35;;;1.60;99.90;;;;;;5031851;28;20198;-77
2021/03/08 07:17:38;;;;;;;36.58;20.27;;;1.70;99.90;;;;;;5032412;28;20185;-78
2021/03/08 07:20:05;;;;;;;31.10;17.67;;;1.90;99.90;;;;;;5033412;28;20589;-76
2021/03/08 07:23:00;;;;;;;37.17;18.48;;;2.00;99.90;;;;;;5036099;28;20186;-77
2021/03/08 07:25:31;;;;;;;33.20;19.33;;;2.10;99.90;;;;;;5023503;28;20206;-77
2021/03/08 07:27:59;;;;;;;38.25;19.42;;;2.10;99.90;;;;;;5035155;28;20184;-77
2021/03/08 07:30:38;;;;;;;37.65;19.20;;;2.10;99.90;;;;;;5036539;28;20215;-77
2021/03/08 07:33:11;;;;;;;36.70;18.38;;;2.10;99.90;;;;;;5035956;28;20181;-77
2021/03/08 07:35:43;;;;;;;41.50;21.60;;;2.20;99.90;;;;;;5036186;28;20704;-77
2021/03/08 07:38:31;;;;;;;35.60;19.30;;;2.30;99.90;;;;;;5036436;28;20171;-77
2021/03/08 07:41:19;;;;;;;31.92;18.75;;;2.30;99.90;;;;;;5036109;28;20598;-77
2021/03/08 07:43:49;;;;;;;32.90;19.38;;;2.30;99.90;;;;;;5034641;28;20194;-78
2021/03/08 07:46:35;;;;;;;40.90;20.92;;;2.30;99.90;;;;;;5036258;28;20177;-78
2021/03/08 07:49:03;;;;;;;36.88;20.65;;;2.50;99.90;;;;;;5036041;28;20258;-77
2021/03/08 07:51:29;;;;;;;32.58;19.50;;;2.60;99.90;;;;;;5036165;28;20216;-78
2021/03/08 07:54:02;;;;;;;39.08;20.88;;;2.60;99.90;;;;;;5035571;28;20205;-80
2021/03/08 07:56:28;;;;;;;36.28;21.10;;;2.70;99.90;;;;;;5035931;28;20174;-78
2021/03/08 07:58:54;;;;;;;33.83;19.80;;;2.70;99.90;;;;;;5034432;28;20182;-77
2021/03/08 08:01:21;;;;;;;36.03;20.35;;;2.70;99.90;;;;;;5035711;28;20210;-78
2021/03/08 08:03:46;;;;;;;37.95;22.02;;;2.80;99.90;;;;;;5035475;28;20190;-78
2021/03/08 08:06:13;;;;;;;37.70;20.87;;;2.80;99.90;;;;;;5035849;28;20544;-77
2021/03/08 08:08:46;;;;;;;36.00;18.42;;;2.70;99.90;;;;;;5035760;28;20416;-78
2021/03/08 08:11:12;;;;;;;41.13;20.52;;;2.70;99.90;;;;;;5035682;28;20202;-77
2021/03/08 08:13:57;;;;;;;41.92;21.13;;;2.60;99.90;;;;;;5035222;28;20200;-78
2021/03/08 08:16:25;;;;;;;36.03;21.88;;;2.70;99.90;;;;;;5034207;28;20182;-77
2021/03/08 08:18:57;;;;;;;40.75;21.88;;;2.80;99.90;;;;;;5015787;28;20316;-78
2021/03/08 08:21:23;;;;;;;36.60;19.65;;;2.80;99.90;;;;;;5014960;28;20202;-77
2021/03/08 08:23:59;;;;;;;40.72;21.63;;;3.00;99.90;;;;;;5013782;28;20532;-78
2021/03/08 08:26:25;;;;;;;40.40;21.65;;;3.00;99.90;;;;;;5015704;28;20257;-76
2021/03/08 08:28:53;;;;;;;43.40;25.30;;;2.90;99.90;;;;;;5015625;28;20257;-76
2021/03/08 08:31:18;;;;;;;38.35;21.35;;;3.10;99.90;;;;;;5015391;28;20204;-77
2021/03/08 08:33:44;;;;;;;38.23;20.57;;;3.00;99.90;;;;;;5013251;28;20201;-77
2021/03/08 08:36:26;;;;;;;43.87;23.50;;;3.00;99.90;;;;;;5015586;28;20414;-78
2021/03/08 08:38:54;;;;;;;44.55;23.88;;;3.00;99.90;;;;;;5015481;28;20269;-77
2021/03/08 08:41:29;;;;;;;44.90;24.88;;;3.00;99.90;;;;;;5015085;28;20315;-78
2021/03/08 08:44:10;;;;;;;41.05;20.80;;;3.20;99.90;;;;;;5014837;28;20571;-77
2021/03/08 08:46:36;;;;;;;36.85;23.15;;;3.40;99.90;;;;;;5015367;28;20205;-78
2021/03/08 08:49:09;;;;;;;45.58;25.30;;;3.50;99.90;;;;;;5014973;28;20171;-76
2021/03/08 08:51:58;;;;;;;47.30;23.17;;;3.50;99.90;;;;;;5015081;28;20175;-77
2021/03/08 08:54:27;;;;;;;38.70;23.45;;;3.70;99.90;;;;;;5014685;28;20277;-77
2021/03/08 08:57:13;;;;;;;35.97;22.25;;;3.70;99.90;;;;;;5015050;28;20175;-78
2021/03/08 08:59:48;;;;;;;41.25;23.40;;;3.80;99.90;;;;;;5014422;28;20190;-77
2021/03/08 09:02:21;;;;;;;41.30;23.77;;;3.70;99.90;;;;;;5014953;28;20266;-77
2021/03/08 09:04:46;;;;;;;47.47;24.50;;;3.80;99.90;;;;;;5014539;28;20547;-77
2021/03/08 09:07:18;;;;;;;47.33;24.20;;;3.80;99.90;;;;;;5014814;28;20181;-77
2021/03/08 09:09:47;;;;;;;41.63;24.27;;;3.90;99.90;;;;;;5014928;28;20228;-78
2021/03/08 09:12:37;;;;;;;44.78;25.13;;;4.00;99.90;;;;;;5014930;28;20187;-78
2021/03/08 09:15:06;;;;;;;40.60;23.45;;;4.20;99.90;;;;;;5014451;28;20671;-77
2021/03/08 09:17:51;;;;;;;62.30;35.47;;;4.20;99.90;;;;;;5014684;28;20189;-78
2021/03/08 09:20:18;;;;;;;44.67;25.77;;;4.20;99.90;;;;;;5014579;28;20253;-78
2021/03/08 09:22:47;;;;;;;44.88;25.70;;;4.10;99.90;;;;;;5014543;28;20171;-77
2021/03/08 09:25:18;;;;;;;43.55;26.52;;;4.30;99.90;;;;;;5014107;28;20195;-78
2021/03/08 09:28:00;;;;;;;50.75;28.00;;;4.30;99.90;;;;;;5014167;28;20261;-77
2021/03/08 09:30:31;;;;;;;55.03;30.52;;;4.30;99.90;;;;;;5014422;28;20530;-77
2021/03/08 09:33:02;;;;;;;47.38;28.35;;;4.30;99.90;;;;;;5014265;28;20224;-77
2021/03/08 09:35:30;;;;;;;55.00;27.58;;;4.50;99.90;;;;;;5014034;28;20301;-79
2021/03/08 09:37:59;;;;;;;48.05;27.80;;;4.60;99.90;;;;;;5014249;28;20540;-78
2021/03/08 09:40:30;;;;;;;45.15;29.23;;;4.80;99.90;;;;;;5014281;28;20624;-79
2021/03/08 09:42:57;;;;;;;56.95;29.48;;;4.80;99.90;;;;;;5014195;28;20170;-78
2021/03/08 09:45:31;;;;;;;48.13;27.20;;;5.00;99.90;;;;;;5012982;28;20199;-78
2021/03/08 09:48:02;;;;;;;42.83;26.45;;;5.00;99.90;;;;;;5014284;28;20546;-78
2021/03/08 09:50:33;;;;;;;46.13;27.60;;;5.10;99.90;;;;;;5014052;28;20177;-78
2021/03/08 09:52:59;;;;;;;44.05;26.08;;;5.00;99.90;;;;;;5012648;28;20181;-79
2021/03/08 09:55:32;;;;;;;52.13;28.52;;;5.10;99.90;;;;;;5012539;28;20687;-79
2021/03/08 09:57:57;;;;;;;57.15;30.15;;;5.20;99.90;;;;;;5013682;28;20175;-78
2021/03/08 10:00:27;;;;;;;56.17;29.60;;;5.50;99.90;;;;;;5013844;28;20281;-77
2021/03/08 10:03:07;;;;;;;43.33;27.42;;;5.50;99.90;;;;;;5013746;28;20757;-78
2021/03/08 10:05:43;;;;;;;49.63;29.83;;;5.40;99.90;;;;;;5013985;28;20313;-78
2021/03/08 10:08:17;;;;;;;47.00;26.67;;;5.30;99.90;;;;;;5013652;28;20249;-77
2021/03/08 10:10:50;;;;;;;48.83;26.83;;;5.20;99.90;;;;;;5013933;28;20197;-78
2021/03/08 10:13:18;;;;;;;43.00;26.70;;;5.20;99.90;;;;;;5013386;28;20186;-77
2021/03/08 10:15:44;;;;;;;46.67;28.23;;;5.10;99.90;;;;;;5013671;28;20553;-78
2021/03/08 10:18:11;;;;;;;53.95;29.05;;;5.20;99.90;;;;;;5013531;28;20257;-78
2021/03/08 10:20:50;;;;;;;49.95;31.27;;;5.20;99.90;;;;;;5011065;28;20519;-77
2021/03/08 10:23:21;;;;;;;51.30;27.63;;;5.00;99.90;;;;;;5012889;28;20538;-79
2021/03/08 10:25:48;;;;;;;44.03;26.23;;;5.10;99.90;;;;;;5013839;28;20171;-78
2021/03/08 10:28:14;;;;;;;56.65;28.85;;;4.90;99.90;;;;;;5011153;28;20217;-78
2021/03/08 10:30:40;;;;;;;46.03;27.45;;;5.10;99.90;;;;;;5013086;28;20900;-76
2021/03/08 10:33:10;;;;;;;45.30;27.33;;;5.00;99.90;;;;;;5012710;28;20258;-77
2021/03/08 10:35:47;;;;;;;47.55;27.60;;;4.90;99.90;;;;;;5012306;28;20567;-78
2021/03/08 10:38:19;;;;;;;50.65;28.95;;;5.20;99.90;;;;;;5013781;28;20178;-79
2021/03/08 10:40:45;;;;;;;50.40;28.48;;;5.00;99.90;;;;;;5012769;28;20206;-78
2021/03/08 10:43:12;;;;;;;53.67;28.87;;;5.10;99.90;;;;;;5010734;28;20177;-79
2021/03/08 10:45:38;;;;;;;44.00;26.92;;;5.20;99.90;;;;;;5012296;28;20177;-78
2021/03/08 10:48:11;;;;;;;46.60;31.00;;;5.10;99.90;;;;;;5012625;28;20189;-77
2021/03/08 10:50:52;;;;;;;48.38;28.00;;;5.20;99.90;;;;;;5012475;28;20205;-77
2021/03/08 10:53:22;;;;;;;49.42;28.17;;;5.00;99.90;;;;;;5012408;28;20224;-78
2021/03/08 10:55:49;;;;;;;54.25;29.77;;;5.20;99.90;;;;;;5014041;28;20182;-77
2021/03/08 10:58:15;;;;;;;51.15;29.40;;;5.30;99.90;;;;;;5016384;28;20182;-76
2021/03/08 11:00:42;;;;;;;52.47;31.63;;;5.20;99.90;;;;;;5016499;28;20210;-78
2021/03/08 11:03:33;;;;;;;52.83;31.70;;;5.20;99.90;;;;;;5015693;28;20175;-78
2021/03/08 11:06:15;;;;;;;51.22;29.40;;;5.40;99.90;;;;;;5017146;28;20182;-77
2021/03/08 11:08:54;;;;;;;56.55;30.35;;;5.40;99.90;;;;;;5015902;28;20290;-76
2021/03/08 11:11:21;;;;;;;49.95;29.50;;;5.40;99.90;;;;;;5016447;28;20178;-77
2021/03/08 11:13:48;;;;;;;52.55;29.75;;;5.30;99.90;;;;;;5016281;28;20203;-76
2021/03/08 11:16:15;;;;;;;55.08;31.80;;;5.40;99.90;;;;;;5015959;28;20174;-77
2021/03/08 11:18:41;;;;;;;64.40;33.97;;;5.40;99.90;;;;;;5016175;28;20289;-77
2021/03/08 11:21:25;;;;;;;54.17;32.00;;;5.50;99.90;;;;;;5016006;28;20726;-77
2021/03/08 11:23:52;;;;;;;52.53;29.00;;;5.70;99.90;;;;;;5015451;28;20222;-79
2021/03/08 11:26:19;;;;;;;51.33;29.95;;;5.80;99.90;;;;;;5016065;28;20593;-76
2021/03/08 11:28:45;;;;;;;54.40;30.77;;;5.70;99.90;;;;;;5016065;28;20547;-78
2021/03/08 11:31:25;;;;;;;56.70;30.57;;;5.80;99.90;;;;;;5015591;28;20192;-79
2021/03/08 11:33:53;;;;;;;48.40;30.75;;;6.00;99.90;;;;;;5015481;28;20457;-80
2021/03/08 11:36:33;;;;;;;50.58;29.65;;;5.90;99.90;;;;;;5015604;28;20182;-76
2021/03/08 11:39:08;;;;;;;46.97;28.45;;;6.20;99.90;;;;;;5015728;28;20183;-77
2021/03/08 11:41:34;;;;;;;50.97;29.38;;;6.60;99.90;;;;;;5015937;28;20202;-77
2021/03/08 11:44:00;;;;;;;48.58;28.60;;;6.80;99.90;;;;;;5014857;28;20562;-77
2021/03/08 11:46:26;;;;;;;53.10;29.20;;;6.70;99.90;;;;;;5015607;28;20612;-77
2021/03/08 11:49:04;;;;;;;49.13;28.37;;;6.60;99.90;;;;;;5015526;28;20227;-79
2021/03/08 11:51:30;;;;;;;46.95;30.05;;;6.70;99.90;;;;;;5015501;28;20186;-79
2021/03/08 11:53:56;;;;;;;45.00;28.30;;;6.80;99.90;;;;;;5015170;28;20191;-77
2021/03/08 11:56:24;;;;;;;50.55;29.75;;;6.80;99.90;;;;;;5014899;28;20178;-77
2021/03/08 11:58:50;;;;;;;40.80;27.50;;;6.40;99.90;;;;;;5014972;28;20178;-77
2021/03/08 12:01:16;;;;;;;44.00;26.80;;;6.60;99.90;;;;;;5015612;28;20222;-77
2021/03/08 12:03:41;;;;;;;50.57;28.17;;;6.40;99.90;;;;;;5015013;28;20203;-77
2021/03/08 12:06:07;;;;;;;41.10;26.43;;;6.40;99.90;;;;;;5015096;28;20202;-78
2021/03/08 12:08:32;;;;;;;49.60;28.67;;;6.50;99.90;;;;;;5014781;28;20539;-79
2021/03/08 12:10:58;;;;;;;44.60;27.77;;;6.80;99.90;;;;;;5015172;28;20262;-77
2021/03/08 12:13:23;;;;;;;47.87;28.97;;;6.80;99.90;;;;;;5014493;28;20174;-79
2021/03/08 12:15:51;;;;;;;48.87;29.27;;;6.80;99.90;;;;;;5015191;28;20175;-78
2021/03/08 12:18:16;;;;;;;49.13;28.23;;;7.00;99.90;;;;;;5014944;28;20170;-75
2021/03/08 12:20:42;;;;;;;53.37;29.30;;;6.90;99.90;;;;;;5014800;28;20214;-78
2021/03/08 12:23:08;;;;;;;48.90;27.60;;;6.70;99.90;;;;;;5014454;28;20480;-77
2021/03/08 12:25:33;;;;;;;49.27;27.67;;;6.60;99.90;;;;;;5014777;28;20175;-78
2021/03/08 12:27:59;;;;;;;44.30;25.77;;;6.70;99.90;;;;;;5014905;28;20178;-77
2021/03/08 12:30:25;;;;;;;45.00;28.13;;;6.90;99.90;;;;;;5028246;28;20205;-77
2021/03/08 12:32:50;;;;;;;44.03;28.63;;;6.80;99.90;;;;;;5032656;28;20201;-77
2021/03/08 12:35:16;;;;;;;54.47;28.90;;;6.80;99.90;;;;;;5033044;28;20491;-79
2021/03/08 12:37:42;;;;;;;49.97;30.37;;;6.80;99.90;;;;;;5034725;28;20170;-79
2021/03/08 12:40:08;;;;;;;50.23;30.47;;;6.80;99.90;;;;;;5034181;28;20192;-78
2021/03/08 12:42:34;;;;;;;48.55;30.25;;;6.90;99.90;;;;;;5034556;28;20655;-77
2021/03/08 12:44:59;;;;;;;49.77;29.17;;;7.30;99.90;;;;;;5033615;28;20198;-77
2021/03/08 12:47:25;;;;;;;48.40;28.70;;;7.50;99.90;;;;;;5034523;28;20702;-76
2021/03/08 12:49:50;;;;;;;47.67;27.90;;;7.50;99.90;;;;;;5034723;28;20170;-77
2021/03/08 12:52:16;;;;;;;53.50;28.60;;;7.50;99.90;;;;;;5033949;28;20288;-78
2021/03/08 12:54:42;;;;;;;57.50;29.60;;;7.60;99.90;;;;;;5033909;28;20225;-77